This is the latest recevied weather packets stored in our database for station/object F5MDY-10. If no packets are shown the sender has not sent any weather packets the latest 10 day(s).
| Time | Temp. | Humidity | Pressure | Rain* | Wind** | Luminosity | Snow |
|---|---|---|---|---|---|---|---|
| 1788146968 | 22.22° C | 57% | 997 hPa | - | - | - | - |
| 1788145048 | 22.22° C | 57% | 997.3 hPa | - | - | - | - |
| 1788143128 | 22.78° C | 55% | 997.1 hPa | - | - | - | - |
| 1788141208 | 22.78° C | 56% | 997.1 hPa | - | - | - | - |
| 1788139288 | 22.78° C | 57% | 997.1 hPa | - | - | - | - |
| 1788137368 | 23.33° C | 57% | 996.9 hPa | - | - | - | - |
| 1788135448 | 23.33° C | 56% | 996.8 hPa | - | - | - | - |
| 1788133528 | 23.33° C | 55% | 996.8 hPa | - | - | - | - |
| 1788131607 | 23.33° C | 57% | 996.8 hPa | - | - | - | - |
| 1788129687 | 23.33° C | 56% | 996.7 hPa | - | - | - | - |
| 1788127767 | 23.89° C | 56% | 996.2 hPa | - | - | - | - |
| 1788125847 | 24.44° C | 55% | 995.9 hPa | - | - | - | - |
| 1788123927 | 25° C | 53% | 995.4 hPa | - | - | - | - |
| 1788122007 | 25.56° C | 52% | 994.9 hPa | - | - | - | - |
| 1788120087 | 26.67° C | 52% | 993.7 hPa | - | - | - | - |
| 1788118167 | 27.78° C | 42% | 993 hPa | - | - | - | - |
| 1788116246 | 27.78° C | 41% | 992.3 hPa | - | - | - | - |
| 1788114326 | 28.33° C | 39% | 992 hPa | - | - | - | - |
| 1788112406 | 28.33° C | 40% | 991.4 hPa | - | - | - | - |
| 1788110486 | 28.33° C | 40% | 990.8 hPa | - | - | - | - |
| 1788108566 | 27.78° C | 41% | 990.6 hPa | - | - | - | - |
| 1788106646 | 27.22° C | 37% | 990.2 hPa | - | - | - | - |
| 1788104721 | 26.67° C | 40% | 990.1 hPa | - | - | - | - |
| 1788102800 | 26.67° C | 42% | 990.1 hPa | - | - | - | - |
| 1788100880 | 26.11° C | 43% | 990.3 hPa | - | - | - | - |
* Rain since midnight (hover to see other rain measurements)
** Current wind speed in m/s (hover to see current wind gust speed)